createdAt,value
2018-06-27T00:00:34.537Z,99.90
2018-06-27T00:06:09.739Z,99.90
2018-06-27T00:09:06.806Z,99.90
2018-06-27T00:11:52.338Z,99.90
2018-06-27T00:14:35.525Z,99.90
2018-06-27T00:17:21.460Z,99.90
2018-06-27T00:20:07.558Z,99.90
2018-06-27T00:23:02.974Z,99.90
2018-06-27T00:25:54.030Z,99.90
2018-06-27T00:28:37.260Z,99.90
2018-06-27T00:31:29.578Z,99.90
2018-06-27T00:34:21.230Z,99.90
2018-06-27T00:37:10.906Z,99.90
2018-06-27T00:39:57.403Z,99.90
2018-06-27T00:42:39.402Z,99.90
2018-06-27T00:45:19.169Z,99.90
2018-06-27T00:48:00.037Z,99.90
2018-06-27T00:50:46.564Z,99.90
2018-06-27T00:53:26.048Z,99.90
2018-06-27T00:56:40.109Z,99.90
2018-06-27T00:59:24.919Z,99.90
2018-06-27T01:02:06.989Z,99.90
2018-06-27T01:05:27.837Z,99.90
2018-06-27T01:08:24.037Z,99.90
2018-06-27T01:11:29.238Z,99.90
2018-06-27T01:14:18.422Z,99.90
2018-06-27T01:17:09.338Z,99.90
2018-06-27T01:20:01.439Z,99.90
2018-06-27T01:22:46.309Z,99.90
2018-06-27T01:25:28.986Z,99.90
2018-06-27T01:28:19.072Z,99.90
2018-06-27T01:31:00.582Z,99.90
2018-06-27T01:33:47.225Z,99.90
2018-06-27T01:36:33.484Z,99.90
2018-06-27T01:39:14.870Z,99.90
2018-06-27T01:44:36.288Z,99.90
2018-06-27T01:47:27.692Z,99.90
2018-06-27T01:50:11.538Z,99.90
2018-06-27T01:53:07.637Z,99.90
2018-06-27T01:55:54.476Z,99.90
2018-06-27T01:58:35.219Z,99.90
2018-06-27T02:01:22.553Z,99.90
2018-06-27T02:04:10.771Z,99.90
2018-06-27T02:07:07.430Z,99.90
2018-06-27T02:09:50.652Z,99.90
2018-06-27T02:12:32.434Z,99.90
2018-06-27T02:15:13.651Z,99.90
2018-06-27T02:17:54.570Z,99.90
2018-06-27T02:20:45.366Z,99.90
2018-06-27T02:23:32.483Z,99.90
2018-06-27T02:26:18.112Z,99.90
2018-06-27T02:31:52.163Z,99.90
2018-06-27T02:34:31.669Z,99.90
2018-06-27T02:37:15.110Z,99.90
2018-06-27T02:39:55.137Z,99.90
2018-06-27T02:42:37.799Z,99.90
2018-06-27T02:45:16.058Z,99.90
2018-06-27T02:47:56.232Z,99.90
2018-06-27T02:50:47.976Z,99.90
2018-06-27T02:53:27.375Z,99.90
2018-06-27T02:58:54.296Z,99.90
2018-06-27T03:01:44.907Z,99.90
2018-06-27T03:09:59.006Z,99.90
2018-06-27T03:16:01.223Z,99.90
2018-06-27T03:18:33.276Z,99.90
2018-06-27T03:21:06.273Z,99.90
2018-06-27T03:23:39.054Z,99.90
2018-06-27T03:26:10.336Z,99.90
2018-06-27T03:28:42.065Z,99.90
2018-06-27T03:31:29.825Z,99.90
2018-06-27T03:34:11.464Z,99.90
2018-06-27T03:36:47.738Z,99.90
2018-06-27T03:39:35.525Z,99.90
2018-06-27T03:42:21.074Z,99.90
2018-06-27T03:48:06.653Z,99.90
2018-06-27T03:50:45.902Z,99.90
2018-06-27T03:53:28.952Z,99.90
2018-06-27T03:56:20.396Z,99.90
2018-06-27T03:59:00.925Z,99.90
2018-06-27T04:04:16.960Z,99.90
2018-06-27T04:09:38.382Z,99.90
2018-06-27T04:12:21.068Z,99.90
2018-06-27T04:15:09.905Z,99.90
2018-06-27T04:20:41.104Z,99.90
2018-06-27T04:23:20.999Z,99.90
2018-06-27T04:26:07.274Z,99.90
2018-06-27T04:28:48.249Z,99.90
2018-06-27T04:31:33.572Z,99.90
2018-06-27T04:34:37.675Z,99.90
2018-06-27T04:37:26.141Z,99.90
2018-06-27T04:45:35.543Z,99.90
2018-06-27T04:48:20.314Z,99.90
2018-06-27T04:51:04.976Z,99.90
2018-06-27T04:53:49.449Z,99.90
2018-06-27T04:59:52.733Z,99.90
2018-06-27T05:02:40.777Z,99.90
2018-06-27T05:05:24.580Z,99.90
2018-06-27T05:08:06.565Z,99.90
2018-06-27T05:10:50.835Z,99.90
2018-06-27T05:13:42.374Z,99.90
2018-06-27T05:16:28.783Z,99.90
2018-06-27T05:19:01.427Z,99.90
2018-06-27T05:21:48.820Z,99.90
2018-06-27T05:24:23.241Z,99.90
2018-06-27T05:26:59.731Z,99.90
2018-06-27T05:29:33.160Z,99.90
2018-06-27T05:32:11.047Z,99.90
2018-06-27T05:34:41.717Z,99.90
2018-06-27T05:37:13.922Z,99.90
2018-06-27T05:39:44.447Z,99.90
2018-06-27T05:42:15.240Z,99.90
2018-06-27T05:44:46.234Z,99.90
2018-06-27T05:47:32.384Z,99.90
2018-06-27T05:50:05.985Z,99.90
2018-06-27T05:52:51.013Z,99.90
2018-06-27T05:55:31.112Z,99.90
2018-06-27T05:58:16.062Z,99.90
2018-06-27T06:00:51.885Z,99.90
2018-06-27T06:03:31.446Z,99.90
2018-06-27T06:06:15.743Z,99.90
2018-06-27T06:08:57.415Z,99.90
2018-06-27T06:11:37.198Z,99.90
2018-06-27T06:17:09.883Z,99.90
2018-06-27T06:19:57.043Z,99.90
2018-06-27T06:25:41.519Z,99.90
2018-06-27T06:28:30.219Z,99.70
2018-06-27T06:31:09.592Z,99.70
2018-06-27T06:34:00.124Z,99.00
2018-06-27T06:39:38.336Z,98.70
2018-06-27T06:42:29.712Z,98.70
2018-06-27T06:51:51.011Z,98.10
2018-06-27T06:54:42.294Z,97.80
2018-06-27T06:57:24.664Z,97.30
2018-06-27T07:00:08.915Z,97.10
2018-06-27T07:02:53.815Z,96.30
2018-06-27T07:05:47.471Z,95.80
2018-06-27T07:08:35.792Z,95.20
2018-06-27T07:14:13.054Z,94.30
2018-06-27T07:17:01.696Z,93.60
2018-06-27T07:19:50.861Z,94.00
2018-06-27T07:22:45.141Z,93.50
2018-06-27T07:25:36.576Z,93.50
2018-06-27T07:28:45.204Z,93.50
2018-06-27T07:31:46.559Z,92.60
2018-06-27T07:34:26.904Z,92.40
2018-06-27T07:37:09.728Z,91.70
2018-06-27T07:40:02.184Z,92.20
2018-06-27T07:42:51.170Z,91.50
2018-06-27T07:45:35.817Z,91.70
2018-06-27T07:48:25.673Z,90.90
2018-06-27T07:51:11.241Z,90.60
2018-06-27T07:54:06.954Z,89.90
2018-06-27T07:56:52.014Z,88.50
2018-06-27T07:59:30.872Z,87.10
2018-06-27T08:02:14.412Z,87.00
2018-06-27T08:04:58.072Z,86.90
2018-06-27T08:07:53.012Z,88.20
2018-06-27T08:10:38.556Z,89.30
2018-06-27T08:13:21.518Z,86.80
2018-06-27T08:16:09.284Z,86.30
2018-06-27T08:21:38.497Z,86.30
2018-06-27T08:24:14.359Z,86.60
2018-06-27T08:26:45.114Z,87.20
2018-06-27T08:29:21.399Z,88.30
2018-06-27T08:31:59.512Z,86.40
2018-06-27T08:34:51.853Z,86.60
2018-06-27T08:37:31.192Z,85.60
2018-06-27T08:40:11.276Z,84.70
2018-06-27T08:42:48.640Z,84.90
2018-06-27T08:48:06.445Z,84.40
2018-06-27T08:50:42.770Z,84.70
2018-06-27T08:53:24.369Z,85.70
2018-06-27T08:56:07.638Z,85.60
2018-06-27T08:58:45.482Z,86.30
2018-06-27T09:01:26.656Z,85.80
2018-06-27T09:06:50.507Z,85.30
2018-06-27T09:09:30.688Z,85.80
2018-06-27T09:12:06.733Z,86.00
2018-06-27T09:14:47.569Z,84.50
2018-06-27T09:20:08.587Z,83.80
2018-06-27T09:22:43.571Z,85.00
2018-06-27T09:25:22.673Z,84.90
2018-06-27T09:28:02.979Z,85.40
2018-06-27T09:30:44.401Z,85.00
2018-06-27T09:33:26.656Z,85.20
2018-06-27T09:36:03.211Z,85.70
2018-06-27T09:38:42.096Z,86.90
2018-06-27T09:41:22.823Z,86.70
2018-06-27T09:43:56.581Z,86.30
2018-06-27T09:46:32.999Z,87.30
2018-06-27T09:49:11.596Z,86.90
2018-06-27T09:51:46.288Z,87.20
2018-06-27T09:54:21.826Z,87.40
2018-06-27T09:56:52.492Z,87.40
2018-06-27T09:59:23.006Z,86.90
2018-06-27T10:01:54.421Z,87.80
2018-06-27T10:04:29.970Z,88.20
2018-06-27T10:09:34.632Z,86.20
2018-06-27T10:12:07.456Z,86.60
2018-06-27T10:14:38.177Z,86.20
2018-06-27T10:17:08.697Z,86.80
2018-06-27T10:19:39.156Z,85.10
2018-06-27T10:22:09.653Z,85.30
2018-06-27T10:24:40.126Z,84.80
2018-06-27T10:27:10.596Z,83.90
2018-06-27T10:29:41.238Z,86.80
2018-06-27T10:32:11.809Z,84.30
2018-06-27T10:34:44.385Z,81.30
2018-06-27T10:37:14.948Z,79.50
2018-06-27T10:39:48.412Z,78.60
2018-06-27T10:42:18.953Z,76.60
2018-06-27T10:44:50.932Z,76.00
2018-06-27T10:47:22.579Z,80.70
2018-06-27T10:49:54.863Z,80.50
2018-06-27T10:52:29.453Z,79.10
2018-06-27T10:55:02.996Z,81.20
2018-06-27T10:57:35.832Z,81.70
2018-06-27T11:00:07.566Z,80.00
2018-06-27T11:02:38.023Z,81.50
2018-06-27T11:05:09.919Z,79.90
2018-06-27T11:07:46.937Z,80.00
2018-06-27T11:10:20.479Z,79.60
2018-06-27T11:12:50.953Z,82.20
2018-06-27T11:15:23.633Z,79.40
2018-06-27T11:17:54.094Z,80.30
2018-06-27T11:20:24.608Z,80.80
2018-06-27T11:22:55.064Z,79.90
2018-06-27T11:25:25.871Z,81.90
2018-06-27T11:27:56.332Z,77.80
2018-06-27T11:30:26.850Z,78.80
2018-06-27T11:32:57.327Z,78.80
2018-06-27T11:35:32.392Z,79.00
2018-06-27T11:38:03.524Z,79.20
2018-06-27T11:40:35.227Z,79.80
2018-06-27T11:43:06.107Z,80.50
2018-06-27T11:45:37.224Z,78.50
2018-06-27T11:48:07.815Z,78.60
2018-06-27T11:50:38.349Z,77.40
2018-06-27T11:53:09.821Z,78.50
2018-06-27T11:55:40.699Z,77.70
2018-06-27T11:58:12.325Z,79.70
2018-06-27T12:00:44.463Z,81.30
2018-06-27T12:03:18.107Z,72.90
2018-06-27T12:05:50.907Z,73.80
2018-06-27T12:08:23.005Z,75.70
2018-06-27T12:10:54.466Z,74.80
2018-06-27T12:13:26.062Z,73.00
2018-06-27T12:15:57.755Z,74.10
2018-06-27T12:18:28.308Z,72.10
2018-06-27T12:20:58.896Z,71.00
2018-06-27T12:23:29.493Z,71.30
2018-06-27T12:25:59.943Z,71.80
2018-06-27T12:28:30.509Z,72.90
2018-06-27T12:31:01.708Z,70.70
2018-06-27T12:33:32.188Z,70.40
2018-06-27T12:36:02.729Z,67.40
2018-06-27T12:38:34.129Z,68.60
2018-06-27T12:41:04.589Z,66.60
2018-06-27T12:43:35.136Z,65.60
2018-06-27T12:48:41.242Z,67.20
2018-06-27T12:51:11.801Z,68.40
2018-06-27T12:53:45.095Z,63.40
2018-06-27T12:56:17.357Z,63.20
2018-06-27T12:58:48.035Z,64.60
2018-06-27T13:01:21.028Z,64.60
2018-06-27T13:03:52.644Z,64.20
2018-06-27T13:06:23.308Z,60.00
2018-06-27T13:08:56.238Z,64.10
2018-06-27T13:11:29.494Z,62.10
2018-06-27T13:14:00.875Z,63.20
2018-06-27T13:16:34.723Z,62.20
2018-06-27T13:19:06.052Z,62.00
2018-06-27T13:21:42.012Z,63.20
2018-06-27T13:24:15.002Z,62.10
2018-06-27T13:26:47.616Z,57.90
2018-06-27T13:29:19.735Z,57.50
2018-06-27T13:31:59.354Z,57.20
2018-06-27T13:34:31.844Z,58.60
2018-06-27T13:37:07.702Z,57.00
2018-06-27T13:39:39.890Z,57.60
2018-06-27T13:42:14.263Z,56.80
2018-06-27T13:44:45.511Z,58.20
2018-06-27T13:49:47.558Z,56.80
2018-06-27T13:52:24.126Z,57.90
2018-06-27T13:54:57.025Z,57.70
2018-06-27T13:57:29.253Z,57.40
2018-06-27T14:00:09.129Z,56.80
2018-06-27T14:02:39.660Z,56.50
2018-06-27T14:05:10.278Z,54.40
2018-06-27T14:07:40.698Z,55.40
2018-06-27T14:10:19.514Z,55.20
2018-06-27T14:12:49.905Z,55.00
2018-06-27T14:15:20.456Z,55.80
2018-06-27T14:17:50.926Z,55.50
2018-06-27T14:20:21.549Z,55.00
2018-06-27T14:22:51.947Z,55.00
2018-06-27T14:25:59.777Z,56.20
2018-06-27T14:31:40.241Z,55.60
2018-06-27T14:34:32.690Z,55.40
2018-06-27T14:37:11.652Z,55.40
2018-06-27T14:39:42.949Z,54.70
2018-06-27T14:42:21.394Z,54.40
2018-06-27T14:45:00.319Z,54.10
2018-06-27T14:47:37.741Z,54.70
2018-06-27T14:50:19.510Z,55.20
2018-06-27T14:52:52.619Z,54.40
2018-06-27T14:55:23.668Z,54.80
2018-06-27T14:57:54.086Z,54.30
2018-06-27T15:00:24.685Z,55.50
2018-06-27T15:02:56.645Z,56.30
2018-06-27T15:05:28.178Z,55.90
2018-06-27T15:07:59.898Z,56.60
2018-06-27T15:10:30.359Z,56.60
2018-06-27T15:13:00.785Z,56.70
2018-06-27T15:15:31.240Z,56.80
2018-06-27T15:18:01.649Z,57.80
2018-06-27T15:20:32.139Z,58.40
2018-06-27T15:23:02.628Z,58.50
2018-06-27T15:25:33.075Z,59.00
2018-06-27T15:28:03.652Z,59.30
2018-06-27T15:30:34.109Z,59.20
2018-06-27T15:33:04.564Z,58.20
2018-06-27T15:35:35.175Z,58.30
2018-06-27T15:38:05.645Z,58.00
2018-06-27T15:40:37.261Z,57.80
2018-06-27T15:46:06.330Z,58.70
2018-06-27T15:48:47.199Z,58.50
2018-06-27T15:51:51.040Z,57.90
2018-06-27T15:54:29.684Z,57.90
2018-06-27T15:57:05.419Z,57.90
2018-06-27T16:00:07.882Z,57.20
2018-06-27T16:02:47.587Z,57.80
2018-06-27T16:05:26.560Z,58.20
2018-06-27T16:08:07.490Z,58.20
2018-06-27T16:10:49.549Z,57.30
2018-06-27T16:13:19.972Z,58.10
2018-06-27T16:15:50.540Z,56.60
2018-06-27T16:18:21.071Z,55.00
2018-06-27T16:20:51.513Z,55.40
2018-06-27T16:23:21.907Z,54.40
2018-06-27T16:25:52.413Z,54.70
2018-06-27T16:28:22.830Z,55.30
2018-06-27T16:30:53.238Z,55.80
2018-06-27T16:33:23.681Z,55.70
2018-06-27T16:35:54.225Z,55.20
2018-06-27T16:38:24.656Z,55.50
2018-06-27T16:40:55.076Z,57.00
2018-06-27T16:43:25.641Z,55.50
2018-06-27T16:45:56.089Z,55.40
2018-06-27T16:48:26.529Z,55.40
2018-06-27T16:50:57.097Z,56.10
2018-06-27T16:53:28.756Z,56.10
2018-06-27T16:55:59.828Z,55.00
2018-06-27T16:58:30.277Z,55.90
2018-06-27T17:01:00.891Z,55.10
2018-06-27T17:03:31.253Z,55.50
2018-06-27T17:06:01.737Z,54.70
2018-06-27T17:08:32.186Z,55.20
2018-06-27T17:11:02.604Z,55.00
2018-06-27T17:13:33.004Z,54.70
2018-06-27T17:16:03.461Z,55.80
2018-06-27T17:18:33.893Z,55.30
2018-06-27T17:21:04.466Z,56.20
2018-06-27T17:23:35.050Z,56.20
2018-06-27T17:26:05.565Z,56.80
2018-06-27T17:28:36.047Z,57.10
2018-06-27T17:31:06.456Z,57.50
2018-06-27T17:33:36.926Z,57.40
2018-06-27T17:36:07.555Z,56.80
2018-06-27T17:38:38.085Z,58.00
2018-06-27T17:41:09.086Z,58.10
2018-06-27T17:43:39.626Z,57.90
2018-06-27T17:46:10.124Z,58.00
2018-06-27T17:48:40.916Z,57.60
2018-06-27T17:51:12.632Z,58.00
2018-06-27T17:53:43.361Z,58.50
2018-06-27T17:56:13.947Z,58.80
2018-06-27T17:58:44.529Z,59.10
2018-06-27T18:01:15.943Z,59.50
2018-06-27T18:03:46.381Z,60.50
2018-06-27T18:06:17.313Z,60.70
2018-06-27T18:08:50.838Z,62.10
2018-06-27T18:11:21.442Z,62.40
2018-06-27T18:13:52.102Z,62.40
2018-06-27T18:16:22.590Z,62.00
2018-06-27T18:18:53.227Z,63.40
2018-06-27T18:21:23.764Z,63.10
2018-06-27T18:23:54.285Z,63.30
2018-06-27T18:26:25.364Z,63.00
2018-06-27T18:28:57.210Z,64.10
2018-06-27T18:31:27.762Z,63.50
2018-06-27T18:33:58.454Z,64.00
2018-06-27T18:36:30.089Z,64.30
2018-06-27T18:39:01.228Z,65.20
2018-06-27T18:41:33.026Z,65.60
2018-06-27T18:44:04.666Z,65.50
2018-06-27T18:46:35.441Z,65.70
2018-06-27T18:49:06.022Z,66.10
2018-06-27T18:51:36.518Z,66.60
2018-06-27T18:54:07.105Z,66.10
2018-06-27T18:56:37.815Z,66.50
2018-06-27T18:59:12.816Z,66.50
2018-06-27T19:01:44.438Z,67.20
2018-06-27T19:04:22.567Z,67.60
2018-06-27T19:06:59.312Z,68.00
2018-06-27T19:09:30.023Z,68.20
2018-06-27T19:12:00.608Z,68.30
2018-06-27T19:14:32.149Z,68.70
2018-06-27T19:17:02.574Z,68.60
2018-06-27T19:19:33.670Z,69.30
2018-06-27T19:22:04.477Z,69.30
2018-06-27T19:24:38.251Z,69.40
2018-06-27T19:27:09.345Z,69.40
2018-06-27T19:29:40.302Z,69.40
2018-06-27T19:32:11.213Z,70.20
2018-06-27T19:34:42.713Z,70.40
2018-06-27T19:37:13.624Z,70.60
2018-06-27T19:39:44.458Z,71.00
2018-06-27T19:42:15.092Z,70.90
2018-06-27T19:44:46.506Z,71.10
2018-06-27T19:47:18.774Z,71.50
2018-06-27T19:49:50.823Z,71.90
2018-06-27T19:52:25.016Z,71.60
2018-06-27T19:54:56.777Z,71.70
2018-06-27T19:57:27.783Z,71.70
2018-06-27T19:59:58.521Z,72.20
2018-06-27T20:02:29.172Z,72.20
2018-06-27T20:05:01.704Z,72.70
2018-06-27T20:07:33.264Z,72.40
2018-06-27T20:10:05.551Z,72.70
2018-06-27T20:12:36.912Z,72.90
2018-06-27T20:15:10.164Z,73.20
2018-06-27T20:17:48.364Z,73.20
2018-06-27T20:20:21.945Z,73.60
2018-06-27T20:22:55.161Z,74.30
2018-06-27T20:25:27.516Z,74.00
2018-06-27T20:27:58.180Z,73.80
2018-06-27T20:30:28.800Z,73.90
2018-06-27T20:32:59.556Z,74.10
2018-06-27T20:35:30.089Z,73.80
2018-06-27T20:38:00.673Z,74.40
2018-06-27T20:40:31.141Z,74.60
2018-06-27T20:43:01.814Z,74.10
2018-06-27T20:45:32.867Z,73.90
2018-06-27T20:48:03.384Z,74.10
2018-06-27T20:50:33.949Z,74.10
2018-06-27T20:53:05.055Z,74.10
2018-06-27T20:55:36.209Z,74.10
2018-06-27T20:58:06.643Z,74.20
2018-06-27T21:00:37.157Z,75.00
2018-06-27T21:03:07.621Z,74.30
2018-06-27T21:05:37.977Z,74.20
2018-06-27T21:08:08.469Z,74.10
2018-06-27T21:10:39.837Z,74.00
2018-06-27T21:13:10.194Z,74.20
2018-06-27T21:15:40.628Z,74.10
2018-06-27T21:18:11.114Z,74.10
2018-06-27T21:20:41.648Z,73.70
2018-06-27T21:23:12.187Z,74.20
2018-06-27T21:25:42.698Z,74.10
2018-06-27T21:28:13.218Z,74.30
2018-06-27T21:30:43.682Z,74.40
2018-06-27T21:33:14.224Z,74.60
2018-06-27T21:35:44.753Z,75.00
2018-06-27T21:38:15.221Z,75.00
2018-06-27T21:40:45.766Z,75.40
2018-06-27T21:43:17.138Z,75.60
2018-06-27T21:45:47.542Z,75.50
2018-06-27T21:48:18.039Z,75.40
2018-06-27T21:50:48.416Z,75.60
2018-06-27T21:53:18.912Z,75.60
2018-06-27T21:55:49.413Z,75.30
2018-06-27T21:58:19.798Z,75.40
2018-06-27T22:00:50.249Z,75.50
2018-06-27T22:03:20.724Z,75.60
2018-06-27T22:08:21.186Z,75.80
2018-06-27T22:10:51.644Z,76.60
2018-06-27T22:13:22.102Z,77.20
2018-06-27T22:15:52.587Z,76.90
2018-06-27T22:18:23.014Z,76.90
2018-06-27T22:20:53.524Z,77.70
2018-06-27T22:23:23.944Z,78.90
2018-06-27T22:25:54.311Z,79.20
2018-06-27T22:28:24.674Z,79.90
2018-06-27T22:30:55.224Z,80.50
2018-06-27T22:33:25.740Z,79.40
2018-06-27T22:35:56.346Z,79.40
2018-06-27T22:38:26.768Z,79.50
2018-06-27T22:40:57.331Z,79.60
2018-06-27T22:43:28.451Z,79.70
2018-06-27T22:45:59.872Z,80.00
2018-06-27T22:48:30.645Z,80.00
2018-06-27T22:51:01.090Z,80.00
2018-06-27T22:53:31.616Z,80.40
2018-06-27T22:56:02.049Z,80.20
2018-06-27T22:58:32.567Z,79.80
2018-06-27T23:01:04.329Z,80.10
2018-06-27T23:06:04.849Z,80.40
2018-06-27T23:08:35.289Z,80.50
2018-06-27T23:11:05.781Z,80.40
2018-06-27T23:13:36.267Z,80.80
2018-06-27T23:16:07.291Z,80.50
2018-06-27T23:18:37.787Z,80.90
2018-06-27T23:21:08.248Z,82.20
2018-06-27T23:23:38.661Z,81.10
2018-06-27T23:26:09.497Z,81.00
2018-06-27T23:28:39.935Z,80.70
2018-06-27T23:31:10.320Z,80.80
2018-06-27T23:33:40.762Z,81.00
2018-06-27T23:36:11.214Z,81.10
2018-06-27T23:38:41.729Z,81.60
2018-06-27T23:41:12.210Z,82.60
2018-06-27T23:43:42.661Z,83.20
2018-06-27T23:46:13.115Z,83.40
2018-06-27T23:48:44.565Z,83.20
2018-06-27T23:51:15.846Z,84.80
2018-06-27T23:53:46.299Z,84.90
2018-06-27T23:56:16.967Z,85.10
2018-06-27T23:58:47.421Z,85.10
